Time;durP1;ratioP1;P1;durP2;ratioP2;P2;SDS_P1;SDS_P2;PMS_P1;PMS_P2;Temp;Humidity;BMP_temperature;BMP_pressure;BME280_temperature;BME280_humidity;BME280_pressure;Samples;Min_cycle;Max_cycle;Signal;HPM_P1;HPM_P2
2022/04/29 00:00:40;;;;;;;;;;;;;;;;;;5068864;28;19947;-62
2022/04/29 00:03:07;;;;;;;;;;;;;;;;;;5065900;28;20411;-63
2022/04/29 00:05:34;;;;;;;;;;;;;;;;;;5067184;28;19968;-64
2022/04/29 00:08:00;;;;;;;;;;;;;;;;;;5065485;28;19924;-62
2022/04/29 00:10:26;;;;;;;;;;;;;;;;;;5068151;28;20001;-62
2022/04/29 00:12:53;;;;;;;;;;;;;;;;;;5070971;28;19924;-64
2022/04/29 00:15:20;;;;;;;;;;;;;;;;;;5062304;28;19978;-64
2022/04/29 00:17:46;;;;;;;;;;;;;;;;;;5068722;28;19928;-64
2022/04/29 00:20:12;;;;;;;;;;;;;;;;;;5067365;28;19924;-63
2022/04/29 00:22:38;;;;;;;;;;;;;;;;;;5071200;28;19924;-64
2022/04/29 00:25:04;;;;;;;;;;;;;;;;;;5059804;28;19924;-64
2022/04/29 00:27:30;;;;;;;;;;;;;;;;;;5063119;28;19925;-64
2022/04/29 00:29:56;;;;;;;;;;;;;;;;;;5069613;28;19925;-63
2022/04/29 00:32:23;;;;;;;;;;;;;;;;;;5062424;28;19939;-64
2022/04/29 00:34:49;;;;;;;;;;;;;;;;;;5063753;28;20372;-63
2022/04/29 00:37:15;;;;;;;;;;;;;;;;;;5066818;28;19924;-64
2022/04/29 00:39:42;;;;;;;;;;;;;;;;;;5070502;28;19925;-62
2022/04/29 00:42:08;;;;;;;;;;;;;;;;;;5070903;28;19925;-63
2022/04/29 00:44:36;;;;;;;;;;;;;;;;;;5065447;28;19955;-63
2022/04/29 00:47:02;;;;;;;;;;;;;;;;;;5066667;28;20003;-62
2022/04/29 00:49:28;;;;;;;;;;;;;;;;;;5066511;28;19925;-62
2022/04/29 00:51:54;;;;;;;;;;;;;;;;;;5066456;28;19928;-65
2022/04/29 00:54:20;;;;;;;;;;;;;;;;;;5062250;28;20124;-61
2022/04/29 00:56:46;;;;;;;;;;;;;;;;;;5063078;28;20445;-62
2022/04/29 00:59:15;;;;;;;;;;;;;;;;;;5061641;28;20333;-62
2022/04/29 01:01:41;;;;;;;;;;;;;;;;;;5062470;28;19924;-61
2022/04/29 01:04:07;;;;;;;;;;;;;;;;;;5062102;28;19925;-61
2022/04/29 01:06:33;;;;;;;;;;;;;;;;;;5060002;28;20114;-61
2022/04/29 01:08:59;;;;;;;;;;;;;;;;;;5062142;28;19931;-64
2022/04/29 01:11:25;;;;;;;;;;;;;;;;;;5068045;28;19925;-63
2022/04/29 01:13:52;;;;;;;;;;;;;;;;;;5062525;28;19925;-63
2022/04/29 01:16:18;;;;;;;;;;;;;;;;;;5060290;28;19932;-62
2022/04/29 01:18:44;;;;;;;;;;;;;;;;;;5057716;28;19940;-63
2022/04/29 01:21:10;;;;;;;;;;;;;;;;;;5066408;28;20200;-63
2022/04/29 01:23:36;;;;;;;;;;;;;;;;;;5058236;28;20388;-62
2022/04/29 01:26:04;;;;;;;;;;;;;;;;;;5066379;28;20297;-63
2022/04/29 01:28:30;;;;;;;;;;;;;;;;;;5062453;28;19928;-63
2022/04/29 01:30:56;;;;;;;;;;;;;;;;;;5065952;28;19924;-61
2022/04/29 01:33:23;;;;;;;;;;;;;;;;;;5062102;28;19924;-61
2022/04/29 01:35:49;;;;;;;;;;;;;;;;;;5062401;28;20629;-64
2022/04/29 01:38:15;;;;;;;;;;;;;;;;;;5067141;28;19948;-63
2022/04/29 01:40:42;;;;;;;;;;;;;;;;;;5068697;28;19928;-63
2022/04/29 01:43:08;;;;;;;;;;;;;;;;;;5067842;28;20019;-64
2022/04/29 01:45:34;;;;;;;;;;;;;;;;;;5066522;28;19925;-63
2022/04/29 01:48:00;;;;;;;;;;;;;;;;;;5062577;28;19964;-63
2022/04/29 01:50:26;;;;;;;;;;;;;;;;;;5056676;28;19924;-64
2022/04/29 01:52:53;;;;;;;;;;;;;;;;;;5062606;28;19932;-63
2022/04/29 01:55:19;;;;;;;;;;;;;;;;;;5069062;28;19932;-63
2022/04/29 01:57:45;;;;;;;;;;;;;;;;;;5060341;28;19935;-63
2022/04/29 02:00:11;;;;;;;;;;;;;;;;;;5063249;28;19925;-62
2022/04/29 02:02:37;;;;;;;;;;;;;;;;;;5059924;28;19929;-62
2022/04/29 02:05:03;;;;;;;;;;;;;;;;;;5069149;28;19940;-61
2022/04/29 02:07:30;;;;;;;;;;;;;;;;;;5058950;28;19924;-61
2022/04/29 02:09:56;;;;;;;;;;;;;;;;;;5061283;28;19925;-61
2022/04/29 02:12:22;;;;;;;;;;;;;;;;;;5069150;28;20190;-62
2022/04/29 02:14:48;;;;;;;;;;;;;;;;;;5060579;28;19924;-62
2022/04/29 02:17:14;;;;;;;;;;;;;;;;;;5066808;28;19976;-63
2022/04/29 02:19:41;;;;;;;;;;;;;;;;;;5063633;28;19925;-64
2022/04/29 02:22:08;;;;;;;;;;;;;;;;;;5058622;28;19931;-64
2022/04/29 02:24:34;;;;;;;;;;;;;;;;;;5069152;28;19969;-66
2022/04/29 02:27:00;;;;;;;;;;;;;;;;;;5061073;28;20012;-62
2022/04/29 02:29:27;;;;;;;;;;;;;;;;;;5060206;28;19925;-62
2022/04/29 02:31:53;;;;;;;;;;;;;;;;;;5064828;28;20001;-62
2022/04/29 02:34:19;;;;;;;;;;;;;;;;;;5062927;28;20009;-63
2022/04/29 02:36:45;;;;;;;;;;;;;;;;;;5063668;28;19936;-61
2022/04/29 02:39:11;;;;;;;;;;;;;;;;;;5062084;28;19924;-61
2022/04/29 02:41:38;;;;;;;;;;;;;;;;;;5063508;28;19925;-63
2022/04/29 02:44:04;;;;;;;;;;;;;;;;;;5066968;28;20408;-63
2022/04/29 02:46:30;;;;;;;;;;;;;;;;;;5065816;28;19929;-62
2022/04/29 02:48:56;;;;;;;;;;;;;;;;;;5065078;28;19932;-63
2022/04/29 02:51:22;;;;;;;;;;;;;;;;;;5067519;28;19924;-62
2022/04/29 02:53:48;;;;;;;;;;;;;;;;;;5064694;28;19942;-63
2022/04/29 02:56:14;;;;;;;;;;;;;;;;;;5067553;28;19925;-64
2022/04/29 02:58:41;;;;;;;;;;;;;;;;;;5064648;28;19946;-63
2022/04/29 03:01:07;;;;;;;;;;;;;;;;;;5064611;28;19933;-64
2022/04/29 03:03:33;;;;;;;;;;;;;;;;;;5069486;28;19924;-64
2022/04/29 03:05:59;;;;;;;;;;;;;;;;;;5072650;28;19925;-66
2022/04/29 03:08:25;;;;;;;;;;;;;;;;;;5067455;28;20172;-66
2022/04/29 03:10:51;;;;;;;;;;;;;;;;;;5071795;28;19925;-69
2022/04/29 03:13:17;;;;;;;;;;;;;;;;;;5069381;28;20444;-64
2022/04/29 03:15:44;;;;;;;;;;;;;;;;;;5072100;28;19948;-64
2022/04/29 03:18:20;;;;;;;;;;;;;;;;;;5069948;28;19929;-65
2022/04/29 03:20:47;;;;;;;;;;;;;;;;;;5072846;28;20315;-62
2022/04/29 03:23:13;;;;;;;;;;;;;;;;;;5063834;28;20033;-62
2022/04/29 03:25:40;;;;;;;;;;;;;;;;;;5072370;28;20443;-62
2022/04/29 03:28:06;;;;;;;;;;;;;;;;;;5075460;22;20399;-64
2022/04/29 03:30:32;;;;;;;;;;;;;;;;;;5069917;28;20312;-63
2022/04/29 03:32:58;;;;;;;;;;;;;;;;;;5069189;28;19931;-63
2022/04/29 03:35:25;;;;;;;;;;;;;;;;;;5070172;28;19931;-63
2022/04/29 03:37:52;;;;;;;;;;;;;;;;;;5068112;28;20023;-64
2022/04/29 03:40:18;;;;;;;;;;;;;;;;;;5067159;28;19929;-62
2022/04/29 03:42:44;;;;;;;;;;;;;;;;;;5067497;28;19924;-63
2022/04/29 03:45:10;;;;;;;;;;;;;;;;;;5069882;28;19947;-64
2022/04/29 03:47:36;;;;;;;;;;;;;;;;;;5069502;28;19947;-64
2022/04/29 03:50:02;;;;;;;;;;;;;;;;;;5069640;28;20313;-64
2022/04/29 03:52:29;;;;;;;;;;;;;;;;;;5070012;28;19951;-64
2022/04/29 03:54:56;;;;;;;;;;;;;;;;;;5069932;28;19969;-62
2022/04/29 03:57:22;;;;;;;;;;;;;;;;;;5068544;28;19925;-63
2022/04/29 03:59:49;;;;;;;;;;;;;;;;;;5069128;28;19925;-63
2022/04/29 04:02:15;;;;;;;;;;;;;;;;;;5069656;28;20326;-61
2022/04/29 04:04:41;;;;;;;;;;;;;;;;;;5068181;28;19935;-60
2022/04/29 04:07:07;;;;;;;;;;;;;;;;;;5069326;28;19931;-61
2022/04/29 04:09:34;;;;;;;;;;;;;;;;;;5068995;28;19925;-58
2022/04/29 04:12:00;;;;;;;;;;;;;;;;;;5066374;28;19925;-61
2022/04/29 04:14:26;;;;;;;;;;;;;;;;;;5069441;28;20023;-60
2022/04/29 04:16:52;;;;;;;;;;;;;;;;;;5068267;28;19925;-60
2022/04/29 04:19:18;;;;;;;;;;;;;;;;;;5069037;28;19944;-57
2022/04/29 04:21:44;;;;;;;;;;;;;;;;;;5068870;28;19928;-64
2022/04/29 04:24:11;;;;;;;;;;;;;;;;;;5070320;28;19935;-61
2022/04/29 04:26:37;;;;;;;;;;;;;;;;;;5069285;28;19993;-61
2022/04/29 04:29:03;;;;;;;;;;;;;;;;;;5066566;28;19931;-60
2022/04/29 04:31:29;;;;;;;;;;;;;;;;;;5069015;28;19924;-61
2022/04/29 04:33:56;;;;;;;;;;;;;;;;;;5068150;28;19928;-60
2022/04/29 04:36:22;;;;;;;;;;;;;;;;;;5069492;28;19949;-62
2022/04/29 04:38:48;;;;;;;;;;;;;;;;;;5066999;28;19937;-60
2022/04/29 04:41:15;;;;;;;;;;;;;;;;;;5069218;28;19998;-61
2022/04/29 04:43:42;;;;;;;;;;;;;;;;;;5069291;28;19925;-62
2022/04/29 04:46:08;;;;;;;;;;;;;;;;;;5069408;28;19924;-62
2022/04/29 04:48:34;;;;;;;;;;;;;;;;;;5068395;28;20377;-70
2022/04/29 04:51:03;;;;;;;;;;;;;;;;;;5069351;28;20011;-66
2022/04/29 04:53:29;;;;;;;;;;;;;;;;;;5062708;28;19925;-66
2022/04/29 04:55:55;;;;;;;;;;;;;;;;;;5068378;28;19931;-67
2022/04/29 04:58:22;;;;;;;;;;;;;;;;;;5068391;28;20356;-66
2022/04/29 05:00:48;;;;;;;;;;;;;;;;;;5069025;28;20303;-65
2022/04/29 05:03:14;;;;;;;;;;;;;;;;;;5068865;28;20360;-67
2022/04/29 05:05:40;;;;;;;;;;;;;;;;;;4364509;28;10000764;-65
2022/04/29 05:08:06;;;;;;;;;;;;;;;;;;5058185;28;19928;-65
2022/04/29 05:10:32;;;;;;;;;;;;;;;;;;5064678;28;19935;-67
2022/04/29 05:12:58;;;;;;;;;;;;;;;;;;5061698;28;20352;-66
2022/04/29 05:15:25;;;;;;;;;;;;;;;;;;5062450;28;19928;-66
2022/04/29 05:17:51;;;;;;;;;;;;;;;;;;5060047;28;19928;-66
2022/04/29 05:20:17;;;;;;;;;;;;;;;;;;5063468;28;19948;-65
2022/04/29 05:22:43;;;;;;;;;;;;;;;;;;5066135;28;20226;-66
2022/04/29 05:25:09;;;;;;;;;;;;;;;;;;5066257;28;19929;-66
2022/04/29 05:27:35;;;;;;;;;;;;;;;;;;5064870;28;20381;-66
2022/04/29 05:30:02;;;;;;;;;;;;;;;;;;5064963;28;20432;-66
2022/04/29 05:32:29;;;;;;;;;;;;;;;;;;5066073;28;19928;-65
2022/04/29 05:34:55;;;;;;;;;;;;;;;;;;5064704;28;20320;-65
2022/04/29 05:37:21;;;;;;;;;;;;;;;;;;5063686;28;19936;-67
2022/04/29 05:42:31;;;;;;;;;;;;;;;;;;5059779;28;20059;-66
2022/04/29 05:44:57;;;;;;;;;;;;;;;;;;5065693;28;19928;-65
2022/04/29 05:47:24;;;;;;;;;;;;;;;;;;5061338;28;19931;-67
2022/04/29 05:49:50;;;;;;;;;;;;;;;;;;5064515;28;19924;-67
2022/04/29 05:52:16;;;;;;;;;;;;;;;;;;5064480;28;20086;-67
2022/04/29 05:54:42;;;;;;;;;;;;;;;;;;5064767;28;19924;-67
2022/04/29 05:57:08;;;;;;;;;;;;;;;;;;5061525;28;19925;-67
2022/04/29 05:59:35;;;;;;;;;;;;;;;;;;5057370;28;19935;-66
2022/04/29 06:02:01;;;;;;;;;;;;;;;;;;5064866;28;19940;-67
2022/04/29 06:04:27;;;;;;;;;;;;;;;;;;5064876;28;19954;-67
2022/04/29 06:06:53;;;;;;;;;;;;;;;;;;5064672;28;20282;-67
2022/04/29 06:09:19;;;;;;;;;;;;;;;;;;5064625;28;20325;-68
2022/04/29 06:11:46;;;;;;;;;;;;;;;;;;5061169;28;19947;-67
2022/04/29 06:14:12;;;;;;;;;;;;;;;;;;5064878;28;19964;-67
2022/04/29 06:16:38;;;;;;;;;;;;;;;;;;5056734;28;19928;-68
2022/04/29 06:19:04;;;;;;;;;;;;;;;;;;5057545;28;19929;-67
2022/04/29 06:21:31;;;;;;;;;;;;;;;;;;5064979;28;19928;-66
2022/04/29 06:23:57;;;;;;;;;;;;;;;;;;5065497;28;20301;-67
2022/04/29 06:26:23;;;;;;;;;;;;;;;;;;5063223;28;19951;-67
2022/04/29 06:28:49;;;;;;;;;;;;;;;;;;5066375;28;19928;-66
2022/04/29 06:31:15;;;;;;;;;;;;;;;;;;5068338;28;19928;-66
2022/04/29 06:33:41;;;;;;;;;;;;;;;;;;5068598;28;19928;-65
2022/04/29 06:36:07;;;;;;;;;;;;;;;;;;5068544;28;20195;-67
2022/04/29 06:38:34;;;;;;;;;;;;;;;;;;5065395;28;20312;-67
2022/04/29 06:41:00;;;;;;;;;;;;;;;;;;5066800;28;19929;-67
2022/04/29 06:43:28;;;;;;;;;;;;;;;;;;5067458;28;19929;-67
2022/04/29 06:45:54;;;;;;;;;;;;;;;;;;4712709;28;10000301;-67
2022/04/29 06:48:20;;;;;;;;;;;;;;;;;;5068085;28;19928;-67
2022/04/29 06:50:46;;;;;;;;;;;;;;;;;;5067951;28;19936;-68
2022/04/29 06:53:12;;;;;;;;;;;;;;;;;;5067932;28;19935;-67
2022/04/29 06:55:39;;;;;;;;;;;;;;;;;;5066858;28;19928;-68
2022/04/29 06:58:05;;;;;;;;;;;;;;;;;;5068334;28;19924;-66
2022/04/29 07:00:31;;;;;;;;;;;;;;;;;;5068398;28;19936;-67
2022/04/29 07:02:57;;;;;;;;;;;;;;;;;;5067611;28;19928;-67
2022/04/29 07:05:23;;;;;;;;;;;;;;;;;;5065624;28;20159;-66
2022/04/29 07:07:49;;;;;;;;;;;;;;;;;;5068330;28;19935;-66
2022/04/29 07:10:16;;;;;;;;;;;;;;;;;;5067466;28;19924;-67
2022/04/29 07:12:42;;;;;;;;;;;;;;;;;;5065515;28;19932;-67
2022/04/29 07:15:08;;;;;;;;;;;;;;;;;;5068074;28;19928;-67
2022/04/29 07:17:34;;;;;;;;;;;;;;;;;;5056182;28;20384;-67
2022/04/29 07:20:01;;;;;;;;;;;;;;;;;;5065093;28;20292;-66
2022/04/29 07:22:27;;;;;;;;;;;;;;;;;;5066006;28;20289;-67
2022/04/29 07:24:53;;;;;;;;;;;;;;;;;;5065849;28;19925;-66
2022/04/29 07:27:20;;;;;;;;;;;;;;;;;;5068284;28;20254;-66
2022/04/29 07:29:47;;;;;;;;;;;;;;;;;;5067007;28;19924;-66
2022/04/29 07:32:13;;;;;;;;;;;;;;;;;;5068063;28;19939;-66
2022/04/29 07:42:51;;;;;;;;;;;;;;;;;;5065945;28;19927;-66
2022/04/29 07:45:17;;;;;;;;;;;;;;;;;;5053550;28;19935;-66
2022/04/29 07:47:43;;;;;;;;;;;;;;;;;;5065778;28;19935;-66
2022/04/29 07:50:11;;;;;;;;;;;;;;;;;;5067341;28;19928;-66
2022/04/29 07:52:38;;;;;;;;;;;;;;;;;;5067379;28;19935;-66
2022/04/29 07:55:04;;;;;;;;;;;;;;;;;;5067325;28;19925;-67
2022/04/29 07:57:30;;;;;;;;;;;;;;;;;;5066666;28;20354;-66
2022/04/29 07:59:56;;;;;;;;;;;;;;;;;;5067496;28;20499;-66
2022/04/29 08:02:22;;;;;;;;;;;;;;;;;;5066194;28;20488;-66
2022/04/29 08:04:48;;;;;;;;;;;;;;;;;;5065809;28;20372;-66
2022/04/29 08:07:14;;;;;;;;;;;;;;;;;;5066042;28;19924;-66
2022/04/29 08:09:41;;;;;;;;;;;;;;;;;;5066432;28;19944;-66
2022/04/29 08:12:07;;;;;;;;;;;;;;;;;;5064712;28;19931;-66
2022/04/29 08:14:33;;;;;;;;;;;;;;;;;;5065950;28;19924;-66
2022/04/29 08:16:59;;;;;;;;;;;;;;;;;;5065064;28;19939;-66
2022/04/29 08:19:25;;;;;;;;;;;;;;;;;;5061152;28;19924;-65
2022/04/29 08:21:51;;;;;;;;;;;;;;;;;;5069053;28;19925;-67
2022/04/29 08:24:17;;;;;;;;;;;;;;;;;;5066747;28;19924;-66
2022/04/29 08:26:43;;;;;;;;;;;;;;;;;;5067172;28;20476;-67
2022/04/29 08:29:10;;;;;;;;;;;;;;;;;;5063654;28;19931;-68
2022/04/29 08:31:36;;;;;;;;;;;;;;;;;;5066101;28;20006;-65
2022/04/29 08:34:04;;;;;;;;;;;;;;;;;;5066636;28;19928;-67
2022/04/29 08:36:31;;;;;;;;;;;;;;;;;;5066613;28;20467;-68
2022/04/29 08:38:57;;;;;;;;;;;;;;;;;;5061093;28;20011;-67
2022/04/29 08:41:23;;;;;;;;;;;;;;;;;;5066518;28;19924;-67
2022/04/29 08:43:49;;;;;;;;;;;;;;;;;;5058177;28;19929;-67
2022/04/29 08:46:16;;;;;;;;;;;;;;;;;;5058269;28;20035;-67
2022/04/29 08:48:42;;;;;;;;;;;;;;;;;;5066335;28;19929;-66
2022/04/29 08:51:08;;;;;;;;;;;;;;;;;;5065686;28;19969;-67
2022/04/29 08:53:34;;;;;;;;;;;;;;;;;;5066262;28;19929;-67
2022/04/29 08:58:44;;;;;;;;;;;;;;;;;;5063045;28;19923;-67
2022/04/29 09:01:10;;;;;;;;;;;;;;;;;;5066373;28;20309;-68
2022/04/29 09:03:36;;;;;;;;;;;;;;;;;;5064328;28;20036;-67
2022/04/29 09:06:03;;;;;;;;;;;;;;;;;;5066002;28;19935;-67
2022/04/29 09:08:33;;;;;;;;;;;;;;;;;;5064824;28;20385;-67
2022/04/29 09:10:59;;;;;;;;;;;;;;;;;;5062742;28;19932;-67
2022/04/29 09:13:25;;;;;;;;;;;;;;;;;;5064801;28;20356;-67
2022/04/29 09:15:51;;;;;;;;;;;;;;;;;;5060227;28;19984;-67
2022/04/29 09:18:17;;;;;;;;;;;;;;;;;;5058114;28;19924;-66
2022/04/29 09:20:43;;;;;;;;;;;;;;;;;;5065513;28;20161;-68
2022/04/29 09:23:10;;;;;;;;;;;;;;;;;;5064315;28;19948;-66
2022/04/29 09:25:36;;;;;;;;;;;;;;;;;;5063996;28;19932;-66
2022/04/29 09:28:02;;;;;;;;;;;;;;;;;;5063691;28;20001;-66
2022/04/29 09:30:29;;;;;;;;;;;;;;;;;;5104137;22;19934;-67
2022/04/29 09:32:55;;;;;;;;;;;;;;;;;;5106523;28;20380;-66
2022/04/29 09:35:21;;;;;;;;;;;;;;;;;;5107285;28;20022;-65
2022/04/29 09:40:27;;;;;;;;;;;;;;;;;;5103716;28;19953;-67
2022/04/29 09:42:53;;;;;;;;;;;;;;;;;;5105122;28;19927;-68
2022/04/29 09:45:20;;;;;;;;;;;;;;;;;;5095568;28;20360;-68
2022/04/29 09:47:46;;;;;;;;;;;;;;;;;;5107118;27;19930;-67
2022/04/29 09:50:13;;;;;;;;;;;;;;;;;;5106304;28;19924;-67
2022/04/29 09:52:39;;;;;;;;;;;;;;;;;;5103796;28;20173;-67
2022/04/29 09:55:05;;;;;;;;;;;;;;;;;;5103680;28;19924;-66
2022/04/29 09:57:31;;;;;;;;;;;;;;;;;;5109469;28;19924;-66
2022/04/29 09:59:59;;;;;;;;;;;;;;;;;;5106526;28;19927;-66
2022/04/29 10:02:26;;;;;;;;;;;;;;;;;;5110140;28;20005;-68
2022/04/29 10:04:52;;;;;;;;;;;;;;;;;;5109743;27;20358;-67
2022/04/29 10:07:18;;;;;;;;;;;;;;;;;;5110918;28;19948;-68
2022/04/29 10:09:44;;;;;;;;;;;;;;;;;;5111149;28;19934;-70
2022/04/29 10:12:10;;;;;;;;;;;;;;;;;;5106068;28;20346;-68
2022/04/29 10:14:37;;;;;;;;;;;;;;;;;;5105004;28;20393;-67
2022/04/29 10:22:31;;;;;;;;;;;;;;;;;;5104250;28;19968;-68
2022/04/29 10:24:57;;;;;;;;;;;;;;;;;;5108992;27;19935;-66
2022/04/29 10:27:23;;;;;;;;;;;;;;;;;;5109461;28;19934;-68
2022/04/29 10:29:50;;;;;;;;;;;;;;;;;;5109889;28;19934;-68
2022/04/29 10:32:16;;;;;;;;;;;;;;;;;;5107553;27;19928;-66
2022/04/29 10:34:42;;;;;;;;;;;;;;;;;;5107516;28;19928;-66
2022/04/29 10:37:08;;;;;;;;;;;;;;;;;;5108437;28;20300;-67
2022/04/29 10:39:34;;;;;;;;;;;;;;;;;;5110013;28;20207;-67
2022/04/29 10:42:00;;;;;;;;;;;;;;;;;;5109699;28;19936;-67
2022/04/29 10:44:26;;;;;;;;;;;;;;;;;;5108908;28;19935;-67
2022/04/29 10:46:53;;;;;;;;;;;;;;;;;;5110586;28;19938;-67
2022/04/29 10:49:19;;;;;;;;;;;;;;;;;;5116134;27;20375;-67
2022/04/29 10:51:45;;;;;;;;;;;;;;;;;;5110107;28;20328;-67
2022/04/29 10:54:11;;;;;;;;;;;;;;;;;;5109178;28;19927;-69
2022/04/29 10:56:37;;;;;;;;;;;;;;;;;;5109988;28;20085;-67
2022/04/29 10:59:03;;;;;;;;;;;;;;;;;;5109855;28;19935;-66
2022/04/29 11:01:33;;;;;;;;;;;;;;;;;;5109971;28;19960;-66
2022/04/29 11:03:59;;;;;;;;;;;;;;;;;;5109605;27;19931;-67
2022/04/29 11:06:25;;;;;;;;;;;;;;;;;;5110956;28;19923;-67
2022/04/29 11:08:51;;;;;;;;;;;;;;;;;;5111591;27;20204;-68
2022/04/29 11:11:17;;;;;;;;;;;;;;;;;;5104172;28;19928;-68
2022/04/29 11:13:44;;;;;;;;;;;;;;;;;;5106053;28;19925;-67
2022/04/29 11:16:10;;;;;;;;;;;;;;;;;;5109206;27;19928;-68
2022/04/29 11:18:36;;;;;;;;;;;;;;;;;;5103921;27;19944;-67
2022/04/29 11:24:40;;;;;;;;;;;;;;;;;;5106607;28;19950;-69
2022/04/29 11:26:29;;;;;;;;;;;;;;;;;;5074491;28;19928;-67
2022/04/29 11:28:55;;;;;;;;;;;;;;;;;;5109435;27;19934;-67
2022/04/29 11:31:21;;;;;;;;;;;;;;;;;;5109263;28;20431;-68
2022/04/29 11:33:47;;;;;;;;;;;;;;;;;;5102601;28;20324;-67
2022/04/29 11:36:14;;;;;;;;;;;;;;;;;;5102531;28;19932;-67
2022/04/29 11:38:40;;;;;;;;;;;;;;;;;;5105121;28;19928;-66
2022/04/29 11:41:06;;;;;;;;;;;;;;;;;;5109333;28;19988;-71
2022/04/29 11:43:33;;;;;;;;;;;;;;;;;;5104512;28;20333;-66
2022/04/29 11:45:59;;;;;;;;;;;;;;;;;;5110434;27;19928;-66
2022/04/29 11:48:25;;;;;;;;;;;;;;;;;;5109736;27;19950;-66
2022/04/29 11:50:51;;;;;;;;;;;;;;;;;;5110328;28;19934;-67
2022/04/29 11:53:18;;;;;;;;;;;;;;;;;;5111216;28;19923;-67
2022/04/29 11:55:44;;;;;;;;;;;;;;;;;;5113582;28;19939;-67
2022/04/29 11:58:11;;;;;;;;;;;;;;;;;;5112645;28;19930;-67
2022/04/29 12:00:37;;;;;;;;;;;;;;;;;;5114649;28;19927;-67
2022/04/29 12:03:04;;;;;;;;;;;;;;;;;;5110454;28;20384;-66
2022/04/29 12:05:30;;;;;;;;;;;;;;;;;;5112735;27;19927;-68
2022/04/29 12:07:56;;;;;;;;;;;;;;;;;;5113035;28;20490;-68
2022/04/29 12:10:22;;;;;;;;;;;;;;;;;;5117539;27;19928;-67
2022/04/29 12:12:52;;;;;;;;;;;;;;;;;;5105253;28;20086;-67
2022/04/29 12:15:18;;;;;;;;;;;;;;;;;;5109831;27;19932;-67
2022/04/29 12:17:44;;;;;;;;;;;;;;;;;;5104967;27;19923;-67
2022/04/29 12:20:10;;;;;;;;;;;;;;;;;;5110045;28;19927;-65
2022/04/29 12:22:37;;;;;;;;;;;;;;;;;;5109860;28;20307;-66
2022/04/29 12:25:03;;;;;;;;;;;;;;;;;;5102803;28;19928;-66
2022/04/29 12:27:29;;;;;;;;;;;;;;;;;;5107794;27;20038;-66
2022/04/29 12:35:20;;;;;;;;;;;;;;;;;;5100277;28;19992;-66
2022/04/29 12:37:46;;;;;;;;;;;;;;;;;;5106256;28;19923;-68
2022/04/29 12:40:12;;;;;;;;;;;;;;;;;;5107671;27;20296;-66
2022/04/29 12:42:38;;;;;;;;;;;;;;;;;;5106082;28;20388;-66
2022/04/29 12:45:05;;;;;;;;;;;;;;;;;;5102286;27;20422;-66
2022/04/29 12:47:32;;;;;;;;;;;;;;;;;;5110574;27;19927;-66
2022/04/29 12:49:59;;;;;;;;;;;;;;;;;;5103860;28;19924;-65
2022/04/29 12:52:25;;;;;;;;;;;;;;;;;;5107658;28;19924;-66
2022/04/29 12:54:51;;;;;;;;;;;;;;;;;;5108451;28;19924;-66
2022/04/29 12:57:17;;;;;;;;;;;;;;;;;;5111854;27;20396;-66
2022/04/29 12:59:45;;;;;;;;;;;;;;;;;;5107133;28;19947;-66
2022/04/29 13:02:11;;;;;;;;;;;;;;;;;;5106935;27;20316;-66
2022/04/29 13:04:37;;;;;;;;;;;;;;;;;;5107581;28;19927;-66
2022/04/29 13:07:03;;;;;;;;;;;;;;;;;;5109044;27;19938;-67
2022/04/29 13:09:30;;;;;;;;;;;;;;;;;;5105731;28;19939;-66
2022/04/29 13:11:56;;;;;;;;;;;;;;;;;;5101747;28;20082;-66
2022/04/29 13:14:22;;;;;;;;;;;;;;;;;;5107839;28;19927;-66
2022/04/29 13:16:48;;;;;;;;;;;;;;;;;;5105731;28;19928;-66
2022/04/29 13:19:15;;;;;;;;;;;;;;;;;;5105322;28;19931;-66
2022/04/29 13:21:41;;;;;;;;;;;;;;;;;;5097655;28;19924;-67
2022/04/29 13:24:07;;;;;;;;;;;;;;;;;;5087523;28;20050;-66
2022/04/29 13:26:34;;;;;;;;;;;;;;;;;;5096918;28;19935;-66
2022/04/29 13:29:00;;;;;;;;;;;;;;;;;;5103387;28;19928;-66
2022/04/29 13:31:27;;;;;;;;;;;;;;;;;;5094739;28;19928;-66
2022/04/29 13:33:53;;;;;;;;;;;;;;;;;;5105152;28;19928;-65
2022/04/29 13:36:19;;;;;;;;;;;;;;;;;;5107430;28;20399;-66
2022/04/29 13:38:45;;;;;;;;;;;;;;;;;;5107872;28;20014;-66
2022/04/29 13:41:11;;;;;;;;;;;;;;;;;;5099517;28;20989;-65
2022/04/29 13:43:38;;;;;;;;;;;;;;;;;;5102363;28;19977;-66
2022/04/29 13:46:05;;;;;;;;;;;;;;;;;;5105151;28;19923;-66
2022/04/29 13:48:31;;;;;;;;;;;;;;;;;;5094623;28;19986;-66
2022/04/29 13:50:57;;;;;;;;;;;;;;;;;;5107467;28;19927;-65
2022/04/29 13:53:23;;;;;;;;;;;;;;;;;;5101343;28;20212;-67
2022/04/29 13:55:51;;;;;;;;;;;;;;;;;;5091451;28;19935;-67
2022/04/29 13:58:18;;;;;;;;;;;;;;;;;;5093443;28;20013;-66
2022/04/29 14:00:45;;;;;;;;;;;;;;;;;;5099819;28;19927;-66
2022/04/29 14:03:11;;;;;;;;;;;;;;;;;;5096640;28;19927;-67
2022/04/29 14:05:37;;;;;;;;;;;;;;;;;;5097389;28;20360;-66
2022/04/29 14:08:03;;;;;;;;;;;;;;;;;;5105675;28;19927;-65
2022/04/29 14:10:30;;;;;;;;;;;;;;;;;;5100994;28;19927;-67
2022/04/29 14:12:58;;;;;;;;;;;;;;;;;;5105359;28;19955;-67
2022/04/29 14:15:24;;;;;;;;;;;;;;;;;;5108619;28;19928;-66
2022/04/29 14:17:50;;;;;;;;;;;;;;;;;;5102835;28;19931;-66
2022/04/29 14:20:17;;;;;;;;;;;;;;;;;;5104007;28;19932;-68
2022/04/29 14:22:43;;;;;;;;;;;;;;;;;;5103773;28;19928;-69
2022/04/29 14:25:11;;;;;;;;;;;;;;;;;;5106435;28;19932;-66
2022/04/29 14:27:37;;;;;;;;;;;;;;;;;;5104365;28;19928;-65
2022/04/29 14:30:03;;;;;;;;;;;;;;;;;;5106686;28;19924;-66
2022/04/29 14:32:30;;;;;;;;;;;;;;;;;;5102162;28;19924;-67
2022/04/29 14:34:56;;;;;;;;;;;;;;;;;;5101727;28;19923;-66
2022/04/29 14:37:26;;;;;;;;;;;;;;;;;;5104196;28;19924;-66
2022/04/29 14:39:53;;;;;;;;;;;;;;;;;;5103078;28;19924;-65
2022/04/29 14:42:19;;;;;;;;;;;;;;;;;;5101962;28;20407;-66
2022/04/29 14:44:46;;;;;;;;;;;;;;;;;;5104912;28;20332;-67
2022/04/29 14:47:12;;;;;;;;;;;;;;;;;;5106240;28;19932;-66
2022/04/29 14:49:38;;;;;;;;;;;;;;;;;;5108280;27;19937;-65
2022/04/29 14:52:05;;;;;;;;;;;;;;;;;;5111334;27;19927;-66
2022/04/29 14:54:31;;;;;;;;;;;;;;;;;;5109732;27;19932;-66
2022/04/29 14:56:57;;;;;;;;;;;;;;;;;;5108389;28;20411;-65
2022/04/29 14:59:23;;;;;;;;;;;;;;;;;;5107124;27;19924;-64
2022/04/29 15:01:51;;;;;;;;;;;;;;;;;;5109242;28;19923;-63
2022/04/29 15:04:17;;;;;;;;;;;;;;;;;;5112097;27;19976;-63
2022/04/29 15:06:43;;;;;;;;;;;;;;;;;;4752299;28;10000495;-63
2022/04/29 15:17:21;;;;;;;;;;;;;;;;;;5115384;27;20403;-64
2022/04/29 15:19:47;;;;;;;;;;;;;;;;;;5113529;28;19962;-65
2022/04/29 15:22:13;;;;;;;;;;;;;;;;;;5116135;28;19971;-66
2022/04/29 15:24:39;;;;;;;;;;;;;;;;;;5115992;28;19936;-64
2022/04/29 15:27:06;;;;;;;;;;;;;;;;;;5115948;27;19927;-62
2022/04/29 15:29:32;;;;;;;;;;;;;;;;;;5114933;28;19939;-63
2022/04/29 15:31:58;;;;;;;;;;;;;;;;;;5111797;22;20312;-71
2022/04/29 15:34:24;;;;;;;;;;;;;;;;;;4737187;28;10000581;-71
2022/04/29 15:36:51;;;;;;;;;;;;;;;;;;5075712;28;19972;-71
2022/04/29 15:39:19;;;;;;;;;;;;;;;;;;5071275;28;19932;-70
2022/04/29 15:41:45;;;;;;;;;;;;;;;;;;5066252;28;19928;-69
2022/04/29 15:44:11;;;;;;;;;;;;;;;;;;5069748;28;19932;-69
2022/04/29 15:46:38;;;;;;;;;;;;;;;;;;5071901;28;19928;-70
2022/04/29 15:49:04;;;;;;;;;;;;;;;;;;5055899;28;19929;-71
2022/04/29 15:51:30;;;;;;;;;;;;;;;;;;5059512;28;19935;-71
2022/04/29 15:53:56;;;;;;;;;;;;;;;;;;5065871;28;19983;-70
2022/04/29 15:56:23;;;;;;;;;;;;;;;;;;5070658;28;19940;-69
2022/04/29 15:58:50;;;;;;;;;;;;;;;;;;5070041;28;19950;-70
2022/04/29 16:01:16;;;;;;;;;;;;;;;;;;5062221;28;19929;-70
2022/04/29 16:03:42;;;;;;;;;;;;;;;;;;5070160;28;20380;-69
2022/04/29 16:06:08;;;;;;;;;;;;;;;;;;5065585;28;19992;-69
2022/04/29 16:08:34;;;;;;;;;;;;;;;;;;5064434;28;20324;-73
2022/04/29 16:11:01;;;;;;;;;;;;;;;;;;5062061;28;19939;-72
2022/04/29 16:13:27;;;;;;;;;;;;;;;;;;5065829;28;20324;-73
2022/04/29 16:15:53;;;;;;;;;;;;;;;;;;5062445;28;19928;-72
2022/04/29 16:21:03;;;;;;;;;;;;;;;;;;5065558;28;20467;-72
2022/04/29 16:26:13;;;;;;;;;;;;;;;;;;5066330;28;19922;-72
2022/04/29 16:28:39;;;;;;;;;;;;;;;;;;5064659;28;20392;-72
2022/04/29 16:31:06;;;;;;;;;;;;;;;;;;5070402;28;19932;-73
2022/04/29 16:33:32;;;;;;;;;;;;;;;;;;5054635;28;19932;-73
2022/04/29 16:35:58;;;;;;;;;;;;;;;;;;5062718;28;19928;-72
2022/04/29 16:38:26;;;;;;;;;;;;;;;;;;5059591;28;19939;-73
2022/04/29 16:40:53;;;;;;;;;;;;;;;;;;5056561;28;19982;-72
2022/04/29 16:43:19;;;;;;;;;;;;;;;;;;5053686;28;19929;-73
2022/04/29 16:45:46;;;;;;;;;;;;;;;;;;5056745;28;20294;-75
2022/04/29 16:48:13;;;;;;;;;;;;;;;;;;5064265;28;19933;-72
2022/04/29 16:50:39;;;;;;;;;;;;;;;;;;5059893;28;20397;-72
2022/04/29 16:53:05;;;;;;;;;;;;;;;;;;5056475;28;19929;-73
2022/04/29 16:55:31;;;;;;;;;;;;;;;;;;5062947;28;19932;-73
2022/04/29 17:00:41;;;;;;;;;;;;;;;;;;5057925;28;19927;-73
2022/04/29 17:03:13;;;;;;;;;;;;;;;;;;5061095;28;19954;-74
2022/04/29 17:05:39;;;;;;;;;;;;;;;;;;5057700;28;20377;-73
2022/04/29 17:08:05;;;;;;;;;;;;;;;;;;5057462;28;20094;-72
2022/04/29 17:10:31;;;;;;;;;;;;;;;;;;5053230;28;19928;-73
2022/04/29 17:12:57;;;;;;;;;;;;;;;;;;5063573;28;19924;-73
2022/04/29 17:15:24;;;;;;;;;;;;;;;;;;5060412;28;20322;-72
2022/04/29 17:17:50;;;;;;;;;;;;;;;;;;5061067;28;19933;-72
2022/04/29 17:20:16;;;;;;;;;;;;;;;;;;5062179;28;20203;-73
2022/04/29 17:22:42;;;;;;;;;;;;;;;;;;5062001;28;19928;-72